createdAt,value
2018-07-31T00:01:58.592Z,8.00
2018-07-31T00:04:27.668Z,8.50
2018-07-31T00:06:57.000Z,7.50
2018-07-31T00:09:26.287Z,8.67
2018-07-31T00:11:55.645Z,9.47
2018-07-31T00:14:25.211Z,7.43
2018-07-31T00:16:54.619Z,8.07
2018-07-31T00:19:23.963Z,6.73
2018-07-31T00:21:53.495Z,8.30
2018-07-31T00:24:22.809Z,7.23
2018-07-31T00:26:52.114Z,7.53
2018-07-31T00:29:21.420Z,7.40
2018-07-31T00:31:51.123Z,8.50
2018-07-31T00:34:20.635Z,6.90
2018-07-31T00:36:50.167Z,6.80
2018-07-31T00:39:19.474Z,7.77
2018-07-31T00:41:48.568Z,7.70
2018-07-31T00:44:17.630Z,10.57
2018-07-31T00:46:46.715Z,8.33
2018-07-31T00:49:15.802Z,6.97
2018-07-31T00:51:45.116Z,7.27
2018-07-31T00:54:14.424Z,12.07
2018-07-31T00:56:43.531Z,7.97
2018-07-31T00:59:12.860Z,7.07
2018-07-31T01:01:42.397Z,7.73
2018-07-31T01:04:11.919Z,8.00
2018-07-31T01:06:43.238Z,7.53
2018-07-31T01:09:13.947Z,7.17
2018-07-31T01:11:43.235Z,7.70
2018-07-31T01:14:12.572Z,7.93
2018-07-31T01:16:42.448Z,7.03
2018-07-31T01:19:12.177Z,8.80
2018-07-31T01:21:41.799Z,8.70
2018-07-31T01:24:11.585Z,7.67
2018-07-31T01:26:41.126Z,7.50
2018-07-31T01:29:10.427Z,7.80
2018-07-31T01:31:40.089Z,7.63
2018-07-31T01:34:09.674Z,9.30
2018-07-31T01:36:39.229Z,9.10
2018-07-31T01:39:09.048Z,7.83
2018-07-31T01:41:38.365Z,8.00
2018-07-31T01:44:07.944Z,7.60
2018-07-31T01:46:37.446Z,8.27
2018-07-31T01:49:06.889Z,7.63
2018-07-31T01:51:36.196Z,7.20
2018-07-31T01:54:05.492Z,7.60
2018-07-31T01:56:34.800Z,8.90
2018-07-31T01:59:04.118Z,8.60
2018-07-31T02:01:33.456Z,8.07
2018-07-31T02:04:03.363Z,8.73
2018-07-31T02:06:32.760Z,8.13
2018-07-31T02:09:02.090Z,8.90
2018-07-31T02:11:31.636Z,8.37
2018-07-31T02:14:01.150Z,8.33
2018-07-31T02:16:30.454Z,7.90
2018-07-31T02:18:59.821Z,7.20
2018-07-31T02:21:29.160Z,7.20
2018-07-31T02:23:58.787Z,7.30
2018-07-31T02:26:28.342Z,11.60
2018-07-31T02:28:57.649Z,8.10
2018-07-31T02:31:26.961Z,8.20
2018-07-31T02:34:02.885Z,11.10
2018-07-31T02:36:32.436Z,7.90
2018-07-31T02:39:01.938Z,8.13
2018-07-31T02:41:31.268Z,8.00
2018-07-31T02:44:00.813Z,10.93
2018-07-31T02:46:30.103Z,7.10
2018-07-31T02:48:59.424Z,7.50
2018-07-31T02:51:28.708Z,10.27
2018-07-31T02:53:58.007Z,7.13
2018-07-31T02:56:27.555Z,7.33
2018-07-31T02:58:57.355Z,7.80
2018-07-31T03:01:26.889Z,7.10
2018-07-31T03:03:56.439Z,7.93
2018-07-31T03:06:25.757Z,8.87
2018-07-31T03:08:55.097Z,7.70
2018-07-31T03:11:24.627Z,7.30
2018-07-31T03:13:53.949Z,8.50
2018-07-31T03:16:23.317Z,8.37
2018-07-31T03:18:52.671Z,7.57
2018-07-31T03:21:21.756Z,8.80
2018-07-31T03:23:50.823Z,7.83
2018-07-31T03:26:20.145Z,6.97
2018-07-31T03:28:49.727Z,7.90
2018-07-31T03:31:18.817Z,9.23
2018-07-31T03:33:48.121Z,8.07
2018-07-31T03:36:18.247Z,7.80
2018-07-31T03:38:47.335Z,7.60
2018-07-31T03:41:16.641Z,6.60
2018-07-31T03:43:46.167Z,7.43
2018-07-31T03:46:15.461Z,6.93
2018-07-31T03:48:44.787Z,6.60
2018-07-31T03:51:14.421Z,8.83
2018-07-31T03:53:43.879Z,6.73
2018-07-31T03:56:13.210Z,7.83
2018-07-31T03:58:42.896Z,8.03
2018-07-31T04:01:12.185Z,7.27
2018-07-31T04:03:41.487Z,8.27
2018-07-31T04:06:10.793Z,8.63
2018-07-31T04:08:39.857Z,7.20
2018-07-31T04:11:09.238Z,6.80
2018-07-31T04:13:38.832Z,7.60
2018-07-31T04:16:08.384Z,7.47
2018-07-31T04:18:37.684Z,6.77
2018-07-31T04:21:06.715Z,6.60
2018-07-31T04:23:36.251Z,6.90
2018-07-31T04:26:05.565Z,8.80
2018-07-31T04:28:34.925Z,7.80
2018-07-31T04:31:04.376Z,7.17
2018-07-31T04:33:33.467Z,7.60
2018-07-31T04:36:03.378Z,7.00
2018-07-31T04:38:32.941Z,7.03
2018-07-31T04:41:02.256Z,6.90
2018-07-31T04:43:31.559Z,6.00
2018-07-31T04:46:00.854Z,6.80
2018-07-31T04:48:30.343Z,7.13
2018-07-31T04:50:59.889Z,6.70
2018-07-31T04:53:29.228Z,8.20
2018-07-31T04:55:58.547Z,7.17
2018-07-31T04:58:27.870Z,7.40
2018-07-31T05:00:57.612Z,7.00
2018-07-31T05:03:26.948Z,7.00
2018-07-31T05:05:56.279Z,6.73
2018-07-31T05:08:25.625Z,6.50
2018-07-31T05:10:55.023Z,7.70
2018-07-31T05:13:24.108Z,6.40
2018-07-31T05:15:53.622Z,6.30
2018-07-31T05:18:22.790Z,6.60
2018-07-31T05:20:52.241Z,6.70
2018-07-31T05:23:21.786Z,8.23
2018-07-31T05:25:51.321Z,11.97
2018-07-31T05:28:20.845Z,6.47
2018-07-31T05:30:50.142Z,7.63
2018-07-31T05:33:19.222Z,7.23
2018-07-31T05:35:48.541Z,6.73
2018-07-31T05:38:17.855Z,6.50
2018-07-31T05:40:46.934Z,6.73
2018-07-31T05:43:16.552Z,6.73
2018-07-31T05:45:45.602Z,6.73
2018-07-31T05:48:14.961Z,6.50
2018-07-31T05:50:44.240Z,6.20
2018-07-31T05:53:13.431Z,8.33
2018-07-31T05:55:42.516Z,5.70
2018-07-31T05:58:11.827Z,6.93
2018-07-31T06:00:41.128Z,16.43
2018-07-31T06:03:10.440Z,19.90
2018-07-31T06:05:40.177Z,27.97
2018-07-31T06:08:09.263Z,16.87
2018-07-31T06:10:38.596Z,19.70
2018-07-31T06:13:08.119Z,21.43
2018-07-31T06:15:37.404Z,22.67
2018-07-31T06:18:06.719Z,28.13
2018-07-31T06:20:36.026Z,21.50
2018-07-31T06:23:05.131Z,19.23
2018-07-31T06:25:34.509Z,15.73
2018-07-31T06:28:03.759Z,22.00
2018-07-31T06:30:32.870Z,26.03
2018-07-31T06:33:01.946Z,20.03
2018-07-31T06:35:31.022Z,24.93
2018-07-31T06:38:00.123Z,18.80
2018-07-31T06:40:29.463Z,20.50
2018-07-31T06:42:58.966Z,23.80
2018-07-31T06:45:28.556Z,12.87
2018-07-31T06:47:58.104Z,9.53
2018-07-31T06:50:27.626Z,7.23
2018-07-31T06:52:57.262Z,9.53
2018-07-31T06:55:26.582Z,8.57
2018-07-31T06:57:56.126Z,13.17
2018-07-31T07:00:25.421Z,11.83
2018-07-31T07:02:54.898Z,8.67
2018-07-31T07:05:24.427Z,7.10
2018-07-31T07:07:53.742Z,10.10
2018-07-31T07:10:23.071Z,9.80
2018-07-31T07:12:52.366Z,6.17
2018-07-31T07:15:21.490Z,10.80
2018-07-31T07:17:50.563Z,8.27
2018-07-31T07:20:19.655Z,10.93
2018-07-31T07:22:48.972Z,11.50
2018-07-31T07:25:18.292Z,13.23
2018-07-31T07:27:47.365Z,6.23
2018-07-31T07:30:16.432Z,8.20
2018-07-31T07:32:45.746Z,10.10
2018-07-31T07:35:15.016Z,7.20
2018-07-31T07:37:44.372Z,13.70
2018-07-31T07:40:13.958Z,6.23
2018-07-31T07:42:43.466Z,17.03
2018-07-31T07:45:12.783Z,10.63
2018-07-31T07:47:42.191Z,32.50
2018-07-31T07:50:11.508Z,11.33
2018-07-31T07:52:40.818Z,9.73
2018-07-31T07:55:10.936Z,8.43
2018-07-31T07:57:40.233Z,6.23
2018-07-31T08:00:10.645Z,14.73
2018-07-31T08:02:39.956Z,7.03
2018-07-31T08:05:09.373Z,8.07
2018-07-31T08:07:38.680Z,7.00
2018-07-31T08:10:07.960Z,9.93
2018-07-31T08:12:37.046Z,7.50
2018-07-31T08:15:06.144Z,10.37
2018-07-31T08:17:35.538Z,9.03
2018-07-31T08:20:05.504Z,8.20
2018-07-31T08:22:34.638Z,13.33
2018-07-31T08:25:04.537Z,14.80
2018-07-31T08:27:33.858Z,21.80
2018-07-31T08:30:05.875Z,20.97
2018-07-31T08:32:35.404Z,14.93
2018-07-31T08:35:05.065Z,10.67
2018-07-31T08:37:34.593Z,10.40
2018-07-31T08:40:04.507Z,9.60
2018-07-31T08:42:33.838Z,7.73
2018-07-31T08:45:03.174Z,11.57
2018-07-31T08:47:32.712Z,8.13
2018-07-31T08:50:01.998Z,7.67
2018-07-31T08:52:31.099Z,10.73
2018-07-31T08:55:00.688Z,10.90
2018-07-31T08:57:29.999Z,14.70
2018-07-31T08:59:59.529Z,20.30
2018-07-31T09:02:29.487Z,12.83
2018-07-31T09:04:58.874Z,8.33
2018-07-31T09:07:28.186Z,8.60
2018-07-31T09:09:57.484Z,8.47
2018-07-31T09:12:26.819Z,7.50
2018-07-31T09:14:56.346Z,9.93
2018-07-31T09:17:25.706Z,8.03
2018-07-31T09:19:55.000Z,7.70
2018-07-31T09:22:24.331Z,7.17
2018-07-31T09:24:53.980Z,12.30
2018-07-31T09:27:23.447Z,15.10
2018-07-31T09:29:53.003Z,11.90
2018-07-31T09:32:27.720Z,9.70
2018-07-31T09:34:57.047Z,9.53
2018-07-31T09:37:26.338Z,9.53
2018-07-31T09:39:55.413Z,12.90
2018-07-31T09:42:24.495Z,15.73
2018-07-31T09:44:53.820Z,7.47
2018-07-31T09:47:23.119Z,6.97
2018-07-31T09:49:52.453Z,12.30
2018-07-31T09:52:21.775Z,7.60
2018-07-31T09:54:51.104Z,13.30
2018-07-31T09:57:20.680Z,10.17
2018-07-31T09:59:50.228Z,7.63
2018-07-31T10:02:19.756Z,7.70
2018-07-31T10:04:49.314Z,14.00
2018-07-31T10:07:18.863Z,11.17
2018-07-31T10:09:48.176Z,7.23
2018-07-31T10:12:17.504Z,7.93
2018-07-31T10:14:46.815Z,7.73
2018-07-31T10:17:16.128Z,8.70
2018-07-31T10:19:45.651Z,9.10
2018-07-31T10:22:14.958Z,8.63
2018-07-31T10:24:44.284Z,10.27
2018-07-31T10:27:13.807Z,8.27
2018-07-31T10:29:43.102Z,7.87
2018-07-31T10:32:12.440Z,10.90
2018-07-31T10:34:41.740Z,8.07
2018-07-31T10:37:11.101Z,7.80
2018-07-31T10:39:40.409Z,9.17
2018-07-31T10:42:09.930Z,14.57
2018-07-31T10:44:39.254Z,8.83
2018-07-31T10:47:08.386Z,9.10
2018-07-31T10:49:37.703Z,9.37
2018-07-31T10:52:06.998Z,9.40
2018-07-31T10:54:36.098Z,7.83
2018-07-31T10:57:05.194Z,8.27
2018-07-31T10:59:34.455Z,9.37
2018-07-31T11:02:03.831Z,8.67
2018-07-31T11:04:33.167Z,8.70
2018-07-31T11:07:02.271Z,8.20
2018-07-31T11:09:31.365Z,9.60
2018-07-31T11:12:00.723Z,8.73
2018-07-31T11:14:30.034Z,9.57
2018-07-31T11:16:59.418Z,9.90
2018-07-31T11:19:28.728Z,8.27
2018-07-31T11:21:58.048Z,10.23
2018-07-31T11:24:28.351Z,8.97
2018-07-31T11:26:57.884Z,8.53
2018-07-31T11:29:27.436Z,9.50
2018-07-31T11:31:56.843Z,8.43
2018-07-31T11:34:26.162Z,9.33
2018-07-31T11:36:55.489Z,10.43
2018-07-31T11:39:24.815Z,8.97
2018-07-31T11:41:54.370Z,11.27
2018-07-31T11:44:23.695Z,8.80
2018-07-31T11:46:53.016Z,9.97
2018-07-31T11:49:22.593Z,9.13
2018-07-31T11:51:51.888Z,9.50
2018-07-31T11:54:21.270Z,9.23
2018-07-31T11:56:50.804Z,10.03
2018-07-31T11:59:20.122Z,10.10
2018-07-31T12:01:49.477Z,9.93
2018-07-31T12:04:19.432Z,13.00
2018-07-31T12:06:48.891Z,9.00
2018-07-31T12:09:17.976Z,9.63
2018-07-31T12:11:47.065Z,9.90
2018-07-31T12:14:16.434Z,10.27
2018-07-31T12:16:46.079Z,9.37
2018-07-31T12:19:15.170Z,10.03
2018-07-31T12:21:44.244Z,9.30
2018-07-31T12:24:13.320Z,9.80
2018-07-31T12:26:42.678Z,9.87
2018-07-31T12:29:11.994Z,9.50
2018-07-31T12:31:41.096Z,8.80
2018-07-31T12:34:10.192Z,10.00
2018-07-31T12:36:39.570Z,10.37
2018-07-31T12:39:10.551Z,15.07
2018-07-31T12:41:39.888Z,8.70
2018-07-31T12:44:09.436Z,9.07
2018-07-31T12:46:38.727Z,9.30
2018-07-31T12:49:08.076Z,10.70
2018-07-31T12:51:37.436Z,11.53
2018-07-31T12:54:06.527Z,9.80
2018-07-31T12:56:35.622Z,9.83
2018-07-31T12:59:04.963Z,10.83
2018-07-31T13:01:34.524Z,8.73
2018-07-31T13:04:04.072Z,10.27
2018-07-31T13:06:33.429Z,8.00
2018-07-31T13:09:03.292Z,10.20
2018-07-31T13:11:32.815Z,7.70
2018-07-31T13:14:02.154Z,8.57
2018-07-31T13:16:31.611Z,11.27
2018-07-31T13:19:00.951Z,8.97
2018-07-31T13:21:29.995Z,11.03
2018-07-31T13:23:59.676Z,9.27
2018-07-31T13:26:29.004Z,9.80
2018-07-31T13:28:58.319Z,8.87
2018-07-31T13:31:27.864Z,8.60
2018-07-31T13:33:57.163Z,8.33
2018-07-31T13:36:26.487Z,13.53
2018-07-31T13:38:56.036Z,9.60
2018-07-31T13:41:25.128Z,10.40
2018-07-31T13:43:54.449Z,12.80
2018-07-31T13:46:23.611Z,13.57
2018-07-31T13:48:53.172Z,10.27
2018-07-31T13:51:22.489Z,11.10
2018-07-31T13:53:51.911Z,10.30
2018-07-31T13:56:21.450Z,10.17
2018-07-31T13:58:51.179Z,27.00
2018-07-31T14:01:20.287Z,82.53
2018-07-31T14:03:49.612Z,45.00
2018-07-31T14:06:18.939Z,68.83
2018-07-31T14:08:48.057Z,68.60
2018-07-31T14:11:17.161Z,45.70
2018-07-31T14:13:46.536Z,22.30
2018-07-31T14:16:15.826Z,20.20
2018-07-31T14:18:45.167Z,18.10
2018-07-31T14:21:14.469Z,13.50
2018-07-31T14:23:43.824Z,24.00
2018-07-31T14:26:13.128Z,20.53
2018-07-31T14:28:42.430Z,9.63
2018-07-31T14:31:11.747Z,16.17
2018-07-31T14:33:41.117Z,14.37
2018-07-31T14:36:10.399Z,10.57
2018-07-31T14:38:39.523Z,18.40
2018-07-31T14:41:08.611Z,22.33
2018-07-31T14:43:37.947Z,14.30
2018-07-31T14:46:07.660Z,10.10
2018-07-31T14:48:36.739Z,15.73
2018-07-31T14:51:06.068Z,12.40
2018-07-31T14:53:35.418Z,17.77
2018-07-31T14:56:04.505Z,11.03
2018-07-31T14:58:33.843Z,12.00
2018-07-31T15:01:03.167Z,10.80
2018-07-31T15:03:32.471Z,11.13
2018-07-31T15:06:01.839Z,11.87
2018-07-31T15:08:31.396Z,14.20
2018-07-31T15:11:00.755Z,11.13
2018-07-31T15:13:30.051Z,9.47
2018-07-31T15:15:59.619Z,13.60
2018-07-31T15:18:28.946Z,11.10
2018-07-31T15:20:58.256Z,17.87
2018-07-31T15:23:27.618Z,27.13
2018-07-31T15:25:56.892Z,13.43
2018-07-31T15:28:26.188Z,15.77
2018-07-31T15:30:55.685Z,11.77
2018-07-31T15:33:25.443Z,12.90
2018-07-31T15:35:55.685Z,20.10
2018-07-31T15:38:25.605Z,11.03
2018-07-31T15:40:55.115Z,14.10
2018-07-31T15:43:25.019Z,11.77
2018-07-31T15:45:54.114Z,10.70
2018-07-31T15:48:23.195Z,13.27
2018-07-31T15:50:52.293Z,20.60
2018-07-31T15:53:21.395Z,12.23
2018-07-31T15:55:50.503Z,8.37
2018-07-31T15:58:19.835Z,8.43
2018-07-31T16:00:49.149Z,11.73
2018-07-31T16:03:18.199Z,6.13
2018-07-31T16:05:48.215Z,5.77
2018-07-31T16:08:17.282Z,8.53
2018-07-31T16:10:46.593Z,5.47
2018-07-31T16:13:15.904Z,7.53
2018-07-31T16:15:44.994Z,4.17
2018-07-31T16:18:14.061Z,6.33
2018-07-31T16:20:43.367Z,7.90
2018-07-31T16:23:12.707Z,7.40
2018-07-31T16:25:42.009Z,12.23
2018-07-31T16:28:11.899Z,7.80
2018-07-31T16:30:41.461Z,11.37
2018-07-31T16:33:10.768Z,4.47
2018-07-31T16:35:40.096Z,5.20
2018-07-31T16:38:09.431Z,7.47
2018-07-31T16:40:38.760Z,7.83
2018-07-31T16:43:08.334Z,12.17
2018-07-31T16:45:40.580Z,10.57
2018-07-31T16:48:09.671Z,10.00
2018-07-31T16:50:39.108Z,5.73
2018-07-31T16:53:08.474Z,3.97
2018-07-31T16:55:37.782Z,8.33
2018-07-31T16:58:06.892Z,8.40
2018-07-31T17:00:35.959Z,4.80
2018-07-31T17:03:05.271Z,13.37
2018-07-31T17:05:34.566Z,5.60
2018-07-31T17:08:03.871Z,6.10
2018-07-31T17:10:33.401Z,4.00
2018-07-31T17:13:02.704Z,9.53
2018-07-31T17:15:32.021Z,8.87
2018-07-31T17:18:01.412Z,5.07
2018-07-31T17:20:30.793Z,3.23
2018-07-31T17:23:00.352Z,6.50
2018-07-31T17:25:29.660Z,9.00
2018-07-31T17:27:58.765Z,11.70
2018-07-31T17:30:27.984Z,3.17
2018-07-31T17:32:57.288Z,2.80
2018-07-31T17:35:26.631Z,3.67
2018-07-31T17:37:55.914Z,11.33
2018-07-31T17:40:25.217Z,5.60
2018-07-31T17:42:54.319Z,2.73
2018-07-31T17:45:23.663Z,19.37
2018-07-31T17:47:52.989Z,7.47
2018-07-31T17:50:22.306Z,7.90
2018-07-31T17:52:51.855Z,4.10
2018-07-31T17:55:21.397Z,2.77
2018-07-31T17:57:50.728Z,2.83
2018-07-31T18:00:20.260Z,6.77
2018-07-31T18:02:49.557Z,2.60
2018-07-31T18:05:18.867Z,6.10
2018-07-31T18:07:48.178Z,4.20
2018-07-31T18:10:17.486Z,7.73
2018-07-31T18:12:46.772Z,3.07
2018-07-31T18:15:16.096Z,2.80
2018-07-31T18:17:45.834Z,3.70
2018-07-31T18:20:15.148Z,7.50
2018-07-31T18:22:44.659Z,2.73
2018-07-31T18:25:13.974Z,6.07
2018-07-31T18:27:43.045Z,2.80
2018-07-31T18:30:12.364Z,4.33
2018-07-31T18:32:42.005Z,3.00
2018-07-31T18:35:11.288Z,4.17
2018-07-31T18:37:40.376Z,4.73
2018-07-31T18:40:09.460Z,6.83
2018-07-31T18:42:38.779Z,3.13
2018-07-31T18:45:08.101Z,6.10
2018-07-31T18:47:37.182Z,3.63
2018-07-31T18:50:06.271Z,3.90
2018-07-31T18:52:35.574Z,4.50
2018-07-31T18:55:04.873Z,7.60
2018-07-31T18:57:33.969Z,3.00
2018-07-31T19:00:03.520Z,8.40
2018-07-31T19:02:32.789Z,6.80
2018-07-31T19:05:02.121Z,2.80
2018-07-31T19:07:31.412Z,8.80
2018-07-31T19:10:00.713Z,5.33
2018-07-31T19:12:30.002Z,7.23
2018-07-31T19:14:59.308Z,4.13
2018-07-31T19:17:28.873Z,3.10
2018-07-31T19:19:58.191Z,3.10
2018-07-31T19:22:27.762Z,3.40
2018-07-31T19:24:57.079Z,2.97
2018-07-31T19:27:26.350Z,6.17
2018-07-31T19:29:55.669Z,3.97
2018-07-31T19:32:24.953Z,4.80
2018-07-31T19:34:54.041Z,3.60
2018-07-31T19:37:23.135Z,5.13
2018-07-31T19:39:52.215Z,6.07
2018-07-31T19:42:21.320Z,6.50
2018-07-31T19:44:50.391Z,8.60
2018-07-31T19:47:19.513Z,19.17
2018-07-31T19:49:48.602Z,9.63
2018-07-31T19:52:17.692Z,28.40
2018-07-31T19:54:49.185Z,13.33
2018-07-31T19:57:19.994Z,51.80
2018-07-31T19:59:49.288Z,6.00
2018-07-31T20:02:18.639Z,20.03
2018-07-31T20:04:47.727Z,5.57
2018-07-31T20:07:17.066Z,12.03
2018-07-31T20:09:46.449Z,13.17
2018-07-31T20:12:15.708Z,5.07
2018-07-31T20:14:45.532Z,10.27
2018-07-31T20:17:14.618Z,5.70
2018-07-31T20:19:44.187Z,4.83
2018-07-31T20:22:13.270Z,9.47
2018-07-31T20:24:42.404Z,7.00
2018-07-31T20:27:11.490Z,4.27
2018-07-31T20:29:41.444Z,5.70
2018-07-31T20:32:11.060Z,4.43
2018-07-31T20:34:41.152Z,11.20
2018-07-31T20:37:10.726Z,5.93
2018-07-31T20:39:40.007Z,3.23
2018-07-31T20:42:09.485Z,3.17
2018-07-31T20:44:38.802Z,3.57
2018-07-31T20:47:08.364Z,3.23
2018-07-31T20:49:37.895Z,5.03
2018-07-31T20:52:07.135Z,2.43
2018-07-31T20:54:36.183Z,3.00
2018-07-31T20:57:05.292Z,2.60
2018-07-31T20:59:34.594Z,10.03
2018-07-31T21:02:03.888Z,4.00
2018-07-31T21:04:32.975Z,2.77
2018-07-31T21:07:02.074Z,2.50
2018-07-31T21:09:31.153Z,3.93
2018-07-31T21:12:00.475Z,3.40
2018-07-31T21:14:29.780Z,2.73
2018-07-31T21:16:58.860Z,4.77
2018-07-31T21:19:27.953Z,2.83
2018-07-31T21:21:57.253Z,3.03
2018-07-31T21:24:26.548Z,2.47
2018-07-31T21:26:55.636Z,3.53
2018-07-31T21:29:24.714Z,2.33
2018-07-31T21:31:53.817Z,2.87
2018-07-31T21:34:22.726Z,4.80
2018-07-31T21:36:51.816Z,2.50
2018-07-31T21:39:21.135Z,2.70
2018-07-31T21:41:50.817Z,2.33
2018-07-31T21:44:20.137Z,3.17
2018-07-31T21:46:49.800Z,6.03
2018-07-31T21:49:18.872Z,2.03
2018-07-31T21:51:47.959Z,2.47
2018-07-31T21:54:17.292Z,3.70
2018-07-31T21:56:46.827Z,2.83
2018-07-31T21:59:16.115Z,2.70
2018-07-31T22:01:45.196Z,2.30
2018-07-31T22:04:14.299Z,2.20
2018-07-31T22:06:43.607Z,2.87
2018-07-31T22:09:12.903Z,2.23
2018-07-31T22:11:42.245Z,2.43
2018-07-31T22:14:11.766Z,4.87
2018-07-31T22:16:47.499Z,2.80
2018-07-31T22:19:16.593Z,4.40
2018-07-31T22:21:45.675Z,2.77
2018-07-31T22:24:15.142Z,2.80
2018-07-31T22:26:45.025Z,3.57
2018-07-31T22:29:14.328Z,6.40
2018-07-31T22:31:43.655Z,4.30
2018-07-31T22:34:12.957Z,3.90
2018-07-31T22:36:42.076Z,2.10
2018-07-31T22:39:12.114Z,4.00
2018-07-31T22:41:42.028Z,2.60
2018-07-31T22:44:11.562Z,3.93
2018-07-31T22:46:40.862Z,8.80
2018-07-31T22:49:10.151Z,6.23
2018-07-31T22:51:40.092Z,1.90
2018-07-31T22:54:09.378Z,7.83
2018-07-31T22:56:38.684Z,2.80
2018-07-31T22:59:07.975Z,4.40
2018-07-31T23:01:37.291Z,6.53
2018-07-31T23:04:06.893Z,3.60
2018-07-31T23:06:36.237Z,5.87
2018-07-31T23:09:07.237Z,5.53
2018-07-31T23:11:36.339Z,3.57
2018-07-31T23:14:05.684Z,9.23
2018-07-31T23:16:36.059Z,4.60
2018-07-31T23:19:05.529Z,3.20
2018-07-31T23:21:35.296Z,10.33
2018-07-31T23:24:04.608Z,3.73
2018-07-31T23:26:34.188Z,6.87
2018-07-31T23:29:03.743Z,4.53
2018-07-31T23:31:33.041Z,8.60
2018-07-31T23:34:02.360Z,8.47
2018-07-31T23:36:31.672Z,3.13
2018-07-31T23:39:00.999Z,3.87
2018-07-31T23:41:30.292Z,4.70
2018-07-31T23:43:59.614Z,3.73
2018-07-31T23:46:28.981Z,5.17
2018-07-31T23:48:58.045Z,12.03
2018-07-31T23:51:27.364Z,3.03
2018-07-31T23:53:56.672Z,5.23
2018-07-31T23:56:25.969Z,3.13
2018-07-31T23:58:55.261Z,4.20
